sensor_id;sensor_type;location;lat;lon;timestamp;pressure;altitude;pressure_sealevel;temperature;humidity
5913;BME280;2982;42.684;23.356;2023-02-28T00:02:14;95330.78;;;6.57;100.00
5913;BME280;2982;42.684;23.356;2023-02-28T00:04:39;95337.66;;;6.52;100.00
5913;BME280;2982;42.684;23.356;2023-02-28T00:07:04;95347.53;;;6.59;100.00
5913;BME280;2982;42.684;23.356;2023-02-28T00:09:30;95326.31;;;6.65;100.00
5913;BME280;2982;42.684;23.356;2023-02-28T00:11:55;95310.78;;;6.51;100.00
5913;BME280;2982;42.684;23.356;2023-02-28T00:14:20;95341.19;;;6.74;100.00
5913;BME280;2982;42.684;23.356;2023-02-28T00:16:46;95321.31;;;6.63;100.00
5913;BME280;2982;42.684;23.356;2023-02-28T00:19:11;95362.44;;;6.67;100.00
5913;BME280;2982;42.684;23.356;2023-02-28T00:21:36;95356.78;;;6.59;100.00
5913;BME280;2982;42.684;23.356;2023-02-28T00:24:01;95344.31;;;6.54;100.00
5913;BME280;2982;42.684;23.356;2023-02-28T00:26:27;95337.19;;;6.39;100.00
5913;BME280;2982;42.684;23.356;2023-02-28T00:28:52;95377.09;;;6.56;100.00
5913;BME280;2982;42.684;23.356;2023-02-28T00:31:17;95356.06;;;6.55;100.00
5913;BME280;2982;42.684;23.356;2023-02-28T00:33:43;95362.81;;;6.55;100.00
5913;BME280;2982;42.684;23.356;2023-02-28T00:36:10;95365.91;;;6.63;100.00
5913;BME280;2982;42.684;23.356;2023-02-28T00:38:36;95350.03;;;6.59;100.00
5913;BME280;2982;42.684;23.356;2023-02-28T00:41:02;95364.22;;;6.63;100.00
5913;BME280;2982;42.684;23.356;2023-02-28T00:43:27;95370.94;;;6.64;100.00
5913;BME280;2982;42.684;23.356;2023-02-28T00:45:53;95267.06;;;5.96;100.00
5913;BME280;2982;42.684;23.356;2023-02-28T00:48:18;95341.19;;;6.46;100.00
5913;BME280;2982;42.684;23.356;2023-02-28T00:50:43;95344.69;;;6.42;100.00
5913;BME280;2982;42.684;23.356;2023-02-28T00:53:08;95346.75;;;6.30;100.00
5913;BME280;2982;42.684;23.356;2023-02-28T00:55:34;95334.31;;;6.24;100.00
5913;BME280;2982;42.684;23.356;2023-02-28T00:57:59;95347.06;;;6.19;100.00
5913;BME280;2982;42.684;23.356;2023-02-28T01:00:24;95342.19;;;6.13;100.00
5913;BME280;2982;42.684;23.356;2023-02-28T01:02:49;95355.94;;;6.03;100.00
5913;BME280;2982;42.684;23.356;2023-02-28T01:05:15;95367.06;;;5.96;100.00
5913;BME280;2982;42.684;23.356;2023-02-28T01:07:40;95359.44;;;5.97;100.00
5913;BME280;2982;42.684;23.356;2023-02-28T01:10:06;95363.84;;;5.91;100.00
5913;BME280;2982;42.684;23.356;2023-02-28T01:12:31;95326.47;;;5.74;100.00
5913;BME280;2982;42.684;23.356;2023-02-28T01:14:57;95345.28;;;5.93;100.00
5913;BME280;2982;42.684;23.356;2023-02-28T01:17:22;95353.03;;;5.87;100.00
5913;BME280;2982;42.684;23.356;2023-02-28T01:19:47;95352.22;;;5.85;100.00
5913;BME280;2982;42.684;23.356;2023-02-28T01:22:12;95337.19;;;5.82;100.00
5913;BME280;2982;42.684;23.356;2023-02-28T01:24:38;95352.22;;;5.87;100.00
5913;BME280;2982;42.684;23.356;2023-02-28T01:27:03;95337.81;;;5.90;100.00
5913;BME280;2982;42.684;23.356;2023-02-28T01:29:28;95345.38;;;5.90;100.00
5913;BME280;2982;42.684;23.356;2023-02-28T01:31:53;95346.94;;;5.94;100.00
5913;BME280;2982;42.684;23.356;2023-02-28T01:34:19;95342.63;;;5.98;100.00
5913;BME280;2982;42.684;23.356;2023-02-28T01:36:44;95339.41;;;5.93;100.00
5913;BME280;2982;42.684;23.356;2023-02-28T01:39:09;95350.13;;;6.01;100.00
5913;BME280;2982;42.684;23.356;2023-02-28T01:41:35;95338.69;;;5.89;100.00
5913;BME280;2982;42.684;23.356;2023-02-28T01:44:04;95335.28;;;5.90;100.00
5913;BME280;2982;42.684;23.356;2023-02-28T01:46:31;95354.59;;;5.91;100.00
5913;BME280;2982;42.684;23.356;2023-02-28T01:49:02;95341.19;;;5.89;100.00
5913;BME280;2982;42.684;23.356;2023-02-28T01:51:48;95341.41;;;5.80;100.00
5913;BME280;2982;42.684;23.356;2023-02-28T01:54:17;95354.84;;;5.81;100.00
5913;BME280;2982;42.684;23.356;2023-02-28T01:56:51;75014.84;;;5.76;100.00
5913;BME280;2982;42.684;23.356;2023-02-28T01:59:31;95348.63;;;5.63;100.00
5913;BME280;2982;42.684;23.356;2023-02-28T02:01:58;95357.72;;;5.68;100.00
5913;BME280;2982;42.684;23.356;2023-02-28T02:04:26;95336.03;;;5.63;100.00
5913;BME280;2982;42.684;23.356;2023-02-28T02:06:52;57515.69;;;-143.17;100.00
5913;BME280;2982;42.684;23.356;2023-02-28T02:09:18;57515.69;;;-143.17;100.00
5913;BME280;2982;42.684;23.356;2023-02-28T02:11:44;57515.69;;;-143.17;100.00
5913;BME280;2982;42.684;23.356;2023-02-28T02:15:03;57515.69;;;-143.17;100.00
5913;BME280;2982;42.684;23.356;2023-02-28T02:17:18;57515.69;;;-143.17;100.00
5913;BME280;2982;42.684;23.356;2023-02-28T02:36:29;57515.69;;;-143.17;100.00
5913;BME280;2982;42.684;23.356;2023-02-28T02:38:53;57515.69;;;-143.17;100.00
5913;BME280;2982;42.684;23.356;2023-02-28T02:41:30;57515.69;;;-143.17;100.00
5913;BME280;2982;42.684;23.356;2023-02-28T02:44:11;57515.69;;;-143.17;100.00
5913;BME280;2982;42.684;23.356;2023-02-28T02:46:42;57515.69;;;-143.17;100.00
5913;BME280;2982;42.684;23.356;2023-02-28T02:49:12;57515.69;;;-143.17;100.00
5913;BME280;2982;42.684;23.356;2023-02-28T02:51:40;57515.69;;;-143.17;100.00
5913;BME280;2982;42.684;23.356;2023-02-28T02:54:12;57515.69;;;-143.17;100.00
5913;BME280;2982;42.684;23.356;2023-02-28T02:56:39;57515.69;;;-143.17;100.00
5913;BME280;2982;42.684;23.356;2023-02-28T02:59:07;57515.69;;;-143.17;100.00
5913;BME280;2982;42.684;23.356;2023-02-28T03:01:36;57515.69;;;-143.17;100.00
5913;BME280;2982;42.684;23.356;2023-02-28T03:04:07;57515.69;;;-143.17;100.00
5913;BME280;2982;42.684;23.356;2023-02-28T03:06:33;57515.69;;;-143.17;100.00
5913;BME280;2982;42.684;23.356;2023-02-28T03:09:00;57515.69;;;-143.17;100.00
5913;BME280;2982;42.684;23.356;2023-02-28T03:11:25;57515.69;;;-143.17;100.00
5913;BME280;2982;42.684;23.356;2023-02-28T03:17:25;57515.69;;;-143.17;100.00
5913;BME280;2982;42.684;23.356;2023-02-28T03:25:18;57515.69;;;-143.17;100.00
5913;BME280;2982;42.684;23.356;2023-02-28T03:30:39;57515.69;;;-143.17;100.00
5913;BME280;2982;42.684;23.356;2023-02-28T03:33:10;57515.69;;;-143.17;100.00
5913;BME280;2982;42.684;23.356;2023-02-28T03:35:42;57515.69;;;-143.17;100.00
5913;BME280;2982;42.684;23.356;2023-02-28T03:38:15;57515.69;;;-143.17;100.00
5913;BME280;2982;42.684;23.356;2023-02-28T03:40:47;57515.69;;;-143.17;100.00
5913;BME280;2982;42.684;23.356;2023-02-28T03:43:20;57515.69;;;-143.17;100.00
5913;BME280;2982;42.684;23.356;2023-02-28T03:45:48;57515.69;;;-143.17;100.00
5913;BME280;2982;42.684;23.356;2023-02-28T03:48:20;57515.69;;;-143.17;100.00
5913;BME280;2982;42.684;23.356;2023-02-28T03:50:53;57515.69;;;-143.17;100.00
5913;BME280;2982;42.684;23.356;2023-02-28T03:53:36;57515.69;;;-143.17;100.00
5913;BME280;2982;42.684;23.356;2023-02-28T03:56:17;57515.69;;;-143.17;100.00
5913;BME280;2982;42.684;23.356;2023-02-28T03:59:02;57515.69;;;-143.17;100.00
5913;BME280;2982;42.684;23.356;2023-02-28T04:04:01;57515.69;;;-143.17;100.00
5913;BME280;2982;42.684;23.356;2023-02-28T04:06:26;57515.69;;;-143.17;100.00
5913;BME280;2982;42.684;23.356;2023-02-28T04:08:52;57515.69;;;-143.17;100.00
5913;BME280;2982;42.684;23.356;2023-02-28T04:13:54;57515.69;;;-143.17;100.00
5913;BME280;2982;42.684;23.356;2023-02-28T04:16:20;57515.69;;;-143.17;100.00
5913;BME280;2982;42.684;23.356;2023-02-28T04:18:45;57515.69;;;-143.17;100.00
5913;BME280;2982;42.684;23.356;2023-02-28T04:21:11;57515.69;;;-143.17;100.00
5913;BME280;2982;42.684;23.356;2023-02-28T04:23:36;57515.69;;;-143.17;100.00
5913;BME280;2982;42.684;23.356;2023-02-28T04:26:01;57515.69;;;-143.17;100.00
5913;BME280;2982;42.684;23.356;2023-02-28T04:28:27;57515.69;;;-143.17;100.00
5913;BME280;2982;42.684;23.356;2023-02-28T04:31:01;57515.69;;;-143.17;100.00
5913;BME280;2982;42.684;23.356;2023-02-28T04:33:28;57515.69;;;-143.17;100.00
5913;BME280;2982;42.684;23.356;2023-02-28T04:36:04;57515.69;;;-143.17;100.00
5913;BME280;2982;42.684;23.356;2023-02-28T04:38:35;57515.69;;;-143.17;100.00
5913;BME280;2982;42.684;23.356;2023-02-28T04:41:00;57515.69;;;-143.17;100.00
5913;BME280;2982;42.684;23.356;2023-02-28T04:43:27;57515.69;;;-143.17;100.00
5913;BME280;2982;42.684;23.356;2023-02-28T04:45:53;57515.69;;;-143.17;100.00
5913;BME280;2982;42.684;23.356;2023-02-28T04:48:18;57515.69;;;-143.17;100.00
5913;BME280;2982;42.684;23.356;2023-02-28T04:50:43;57515.69;;;-143.17;100.00
5913;BME280;2982;42.684;23.356;2023-02-28T04:53:09;57515.69;;;-143.17;100.00
5913;BME280;2982;42.684;23.356;2023-02-28T04:55:34;57515.69;;;-143.17;100.00
5913;BME280;2982;42.684;23.356;2023-02-28T04:57:59;57515.69;;;-143.17;100.00
5913;BME280;2982;42.684;23.356;2023-02-28T05:00:25;57515.69;;;-143.17;100.00
5913;BME280;2982;42.684;23.356;2023-02-28T05:02:50;57515.69;;;-143.17;100.00
5913;BME280;2982;42.684;23.356;2023-02-28T05:05:15;57515.69;;;-143.17;100.00
5913;BME280;2982;42.684;23.356;2023-02-28T05:07:41;57515.69;;;-143.17;100.00
5913;BME280;2982;42.684;23.356;2023-02-28T05:10:06;57515.69;;;-143.17;100.00
5913;BME280;2982;42.684;23.356;2023-02-28T05:12:32;57515.69;;;-143.17;100.00
5913;BME280;2982;42.684;23.356;2023-02-28T05:14:57;57515.69;;;-143.17;100.00
5913;BME280;2982;42.684;23.356;2023-02-28T05:19:57;57515.69;;;-143.17;100.00
5913;BME280;2982;42.684;23.356;2023-02-28T05:22:23;57515.69;;;-143.17;100.00
5913;BME280;2982;42.684;23.356;2023-02-28T05:24:48;57515.69;;;-143.17;100.00
5913;BME280;2982;42.684;23.356;2023-02-28T05:27:16;57515.69;;;-143.17;100.00
5913;BME280;2982;42.684;23.356;2023-02-28T05:29:42;57515.69;;;-143.17;100.00
5913;BME280;2982;42.684;23.356;2023-02-28T05:32:11;57515.69;;;-143.17;100.00
5913;BME280;2982;42.684;23.356;2023-02-28T05:34:41;57515.69;;;-143.17;100.00
5913;BME280;2982;42.684;23.356;2023-02-28T05:37:11;57515.69;;;-143.17;100.00
5913;BME280;2982;42.684;23.356;2023-02-28T05:39:37;57515.69;;;-143.17;100.00
5913;BME280;2982;42.684;23.356;2023-02-28T05:42:03;57515.69;;;-143.17;100.00
5913;BME280;2982;42.684;23.356;2023-02-28T05:44:28;57515.69;;;-143.17;100.00
5913;BME280;2982;42.684;23.356;2023-02-28T05:46:53;57515.69;;;-143.17;100.00
5913;BME280;2982;42.684;23.356;2023-02-28T05:49:19;57515.69;;;-143.17;100.00
5913;BME280;2982;42.684;23.356;2023-02-28T05:51:44;57515.69;;;-143.17;100.00
5913;BME280;2982;42.684;23.356;2023-02-28T05:54:09;57515.69;;;-143.17;100.00
5913;BME280;2982;42.684;23.356;2023-02-28T05:56:35;57515.69;;;-143.17;100.00
5913;BME280;2982;42.684;23.356;2023-02-28T05:59:00;57515.69;;;-143.17;100.00
5913;BME280;2982;42.684;23.356;2023-02-28T06:01:34;57515.69;;;-143.17;100.00
5913;BME280;2982;42.684;23.356;2023-02-28T06:04:01;57515.69;;;-143.17;100.00
5913;BME280;2982;42.684;23.356;2023-02-28T06:06:27;57515.69;;;-143.17;100.00
5913;BME280;2982;42.684;23.356;2023-02-28T06:08:52;57515.69;;;-143.17;100.00
5913;BME280;2982;42.684;23.356;2023-02-28T06:11:17;57515.69;;;-143.17;100.00
5913;BME280;2982;42.684;23.356;2023-02-28T06:13:43;57515.69;;;-143.17;100.00
5913;BME280;2982;42.684;23.356;2023-02-28T06:16:10;57515.69;;;-143.17;100.00
5913;BME280;2982;42.684;23.356;2023-02-28T06:18:35;57515.69;;;-143.17;100.00
5913;BME280;2982;42.684;23.356;2023-02-28T06:21:01;57515.69;;;-143.17;100.00
5913;BME280;2982;42.684;23.356;2023-02-28T06:23:26;57515.69;;;-143.17;100.00
5913;BME280;2982;42.684;23.356;2023-02-28T06:25:51;57515.69;;;-143.17;100.00
5913;BME280;2982;42.684;23.356;2023-02-28T06:28:17;57515.69;;;-143.17;100.00
5913;BME280;2982;42.684;23.356;2023-02-28T06:30:42;57515.69;;;-143.17;100.00
5913;BME280;2982;42.684;23.356;2023-02-28T06:33:29;57515.69;;;-143.17;100.00
5913;BME280;2982;42.684;23.356;2023-02-28T06:35:54;57515.69;;;-143.17;100.00
5913;BME280;2982;42.684;23.356;2023-02-28T06:38:19;57515.69;;;-143.17;100.00
5913;BME280;2982;42.684;23.356;2023-02-28T06:40:53;57515.69;;;-143.17;100.00
5913;BME280;2982;42.684;23.356;2023-02-28T06:43:18;57515.69;;;-143.17;100.00
5913;BME280;2982;42.684;23.356;2023-02-28T06:45:44;57515.69;;;-143.17;100.00
5913;BME280;2982;42.684;23.356;2023-02-28T06:48:09;57515.69;;;-143.17;100.00
5913;BME280;2982;42.684;23.356;2023-02-28T06:50:34;57515.69;;;-143.17;100.00
5913;BME280;2982;42.684;23.356;2023-02-28T06:52:59;57515.69;;;-143.17;100.00
5913;BME280;2982;42.684;23.356;2023-02-28T06:55:25;57515.69;;;-143.17;100.00
5913;BME280;2982;42.684;23.356;2023-02-28T06:57:50;57515.69;;;-143.17;100.00
5913;BME280;2982;42.684;23.356;2023-02-28T07:00:16;57515.69;;;-143.17;100.00
5913;BME280;2982;42.684;23.356;2023-02-28T07:02:41;57515.69;;;-143.17;100.00
5913;BME280;2982;42.684;23.356;2023-02-28T07:05:06;57515.69;;;-143.17;100.00
5913;BME280;2982;42.684;23.356;2023-02-28T07:07:32;57515.69;;;-143.17;100.00
5913;BME280;2982;42.684;23.356;2023-02-28T07:09:57;57515.69;;;-143.17;100.00
5913;BME280;2982;42.684;23.356;2023-02-28T07:12:23;57515.69;;;-143.17;100.00
5913;BME280;2982;42.684;23.356;2023-02-28T07:14:48;57515.69;;;-143.17;100.00
5913;BME280;2982;42.684;23.356;2023-02-28T07:17:13;57515.69;;;-143.17;100.00
5913;BME280;2982;42.684;23.356;2023-02-28T07:19:39;57515.69;;;-143.17;100.00
5913;BME280;2982;42.684;23.356;2023-02-28T07:22:05;57515.69;;;-143.17;100.00
5913;BME280;2982;42.684;23.356;2023-02-28T07:24:30;57515.69;;;-143.17;100.00
5913;BME280;2982;42.684;23.356;2023-02-28T07:26:55;57515.69;;;-143.17;100.00
5913;BME280;2982;42.684;23.356;2023-02-28T07:29:21;57515.69;;;-143.17;100.00
5913;BME280;2982;42.684;23.356;2023-02-28T07:31:46;57515.69;;;-143.17;100.00
5913;BME280;2982;42.684;23.356;2023-02-28T07:34:15;57515.69;;;-143.17;100.00
5913;BME280;2982;42.684;23.356;2023-02-28T07:36:40;57515.69;;;-143.17;100.00
5913;BME280;2982;42.684;23.356;2023-02-28T07:39:05;57515.69;;;-143.17;100.00
5913;BME280;2982;42.684;23.356;2023-02-28T07:41:31;57515.69;;;-143.17;100.00
5913;BME280;2982;42.684;23.356;2023-02-28T07:43:56;57515.69;;;-143.17;100.00
5913;BME280;2982;42.684;23.356;2023-02-28T07:46:21;57515.69;;;-143.17;100.00
5913;BME280;2982;42.684;23.356;2023-02-28T07:48:47;57515.69;;;-143.17;100.00
5913;BME280;2982;42.684;23.356;2023-02-28T07:51:12;57515.69;;;-143.17;100.00
5913;BME280;2982;42.684;23.356;2023-02-28T07:53:38;57515.69;;;-143.17;100.00
5913;BME280;2982;42.684;23.356;2023-02-28T07:56:03;57515.69;;;-143.17;100.00
5913;BME280;2982;42.684;23.356;2023-02-28T07:58:30;57515.69;;;-143.17;100.00
5913;BME280;2982;42.684;23.356;2023-02-28T08:00:56;57515.69;;;-143.17;100.00
5913;BME280;2982;42.684;23.356;2023-02-28T08:03:22;57515.69;;;-143.17;100.00
5913;BME280;2982;42.684;23.356;2023-02-28T08:05:48;57515.69;;;-143.17;100.00
5913;BME280;2982;42.684;23.356;2023-02-28T08:08:15;57515.69;;;-143.17;100.00
5913;BME280;2982;42.684;23.356;2023-02-28T08:10:41;57515.69;;;-143.17;100.00
5913;BME280;2982;42.684;23.356;2023-02-28T08:13:07;57515.69;;;-143.17;100.00
5913;BME280;2982;42.684;23.356;2023-02-28T08:15:32;57515.69;;;-143.17;100.00
5913;BME280;2982;42.684;23.356;2023-02-28T08:17:57;57515.69;;;-143.17;100.00
5913;BME280;2982;42.684;23.356;2023-02-28T08:20:24;57515.69;;;-143.17;100.00
5913;BME280;2982;42.684;23.356;2023-02-28T08:22:50;57515.69;;;-143.17;100.00
5913;BME280;2982;42.684;23.356;2023-02-28T08:25:16;57515.69;;;-143.17;100.00
5913;BME280;2982;42.684;23.356;2023-02-28T08:27:41;57515.69;;;-143.17;100.00
5913;BME280;2982;42.684;23.356;2023-02-28T08:30:07;57515.69;;;-143.17;100.00
5913;BME280;2982;42.684;23.356;2023-02-28T08:32:33;57515.69;;;-143.17;100.00
5913;BME280;2982;42.684;23.356;2023-02-28T08:34:59;57515.69;;;-143.17;100.00
5913;BME280;2982;42.684;23.356;2023-02-28T08:37:24;57515.69;;;-143.17;100.00
5913;BME280;2982;42.684;23.356;2023-02-28T08:39:50;57515.69;;;-143.17;100.00
5913;BME280;2982;42.684;23.356;2023-02-28T08:42:15;57515.69;;;-143.17;100.00
5913;BME280;2982;42.684;23.356;2023-02-28T08:44:40;57515.69;;;-143.17;100.00
5913;BME280;2982;42.684;23.356;2023-02-28T08:47:06;57515.69;;;-143.17;100.00
5913;BME280;2982;42.684;23.356;2023-02-28T08:49:31;57515.69;;;-143.17;100.00
5913;BME280;2982;42.684;23.356;2023-02-28T08:51:56;57515.69;;;-143.17;100.00
5913;BME280;2982;42.684;23.356;2023-02-28T08:54:22;57515.69;;;-143.17;100.00
5913;BME280;2982;42.684;23.356;2023-02-28T08:56:48;57515.69;;;-143.17;100.00
5913;BME280;2982;42.684;23.356;2023-02-28T08:59:13;57515.69;;;-143.17;100.00
5913;BME280;2982;42.684;23.356;2023-02-28T09:01:39;57515.69;;;-143.17;100.00
5913;BME280;2982;42.684;23.356;2023-02-28T09:04:04;57515.69;;;-143.17;100.00
5913;BME280;2982;42.684;23.356;2023-02-28T09:06:29;57515.69;;;-143.17;100.00
5913;BME280;2982;42.684;23.356;2023-02-28T09:08:58;57515.69;;;-143.17;100.00
5913;BME280;2982;42.684;23.356;2023-02-28T09:11:23;57515.69;;;-143.17;100.00
5913;BME280;2982;42.684;23.356;2023-02-28T09:13:49;57515.69;;;-143.17;100.00
5913;BME280;2982;42.684;23.356;2023-02-28T09:16:15;57515.69;;;-143.17;100.00
5913;BME280;2982;42.684;23.356;2023-02-28T09:18:41;57515.69;;;-143.17;100.00
5913;BME280;2982;42.684;23.356;2023-02-28T09:21:10;57515.69;;;-143.17;100.00
5913;BME280;2982;42.684;23.356;2023-02-28T09:23:35;57515.69;;;-143.17;100.00
5913;BME280;2982;42.684;23.356;2023-02-28T09:26:01;57515.69;;;-143.17;100.00
5913;BME280;2982;42.684;23.356;2023-02-28T09:28:26;57515.69;;;-143.17;100.00
5913;BME280;2982;42.684;23.356;2023-02-28T09:30:54;57515.69;;;-143.17;100.00
5913;BME280;2982;42.684;23.356;2023-02-28T09:33:20;57515.69;;;-143.17;100.00
5913;BME280;2982;42.684;23.356;2023-02-28T09:35:50;57515.69;;;-143.17;100.00
5913;BME280;2982;42.684;23.356;2023-02-28T09:38:16;57515.69;;;-143.17;100.00
5913;BME280;2982;42.684;23.356;2023-02-28T09:40:58;57515.69;;;-143.17;100.00
5913;BME280;2982;42.684;23.356;2023-02-28T09:43:26;57515.69;;;-143.17;100.00
5913;BME280;2982;42.684;23.356;2023-02-28T09:48:36;57515.69;;;-143.17;100.00
5913;BME280;2982;42.684;23.356;2023-02-28T09:51:09;57515.69;;;-143.17;100.00
5913;BME280;2982;42.684;23.356;2023-02-28T09:53:38;57515.69;;;-143.17;100.00
5913;BME280;2982;42.684;23.356;2023-02-28T09:56:25;57515.69;;;-143.17;100.00
5913;BME280;2982;42.684;23.356;2023-02-28T09:58:56;57515.69;;;-143.17;100.00
5913;BME280;2982;42.684;23.356;2023-02-28T10:01:47;57515.69;;;-143.17;100.00
5913;BME280;2982;42.684;23.356;2023-02-28T10:07:03;57515.69;;;-143.17;100.00
5913;BME280;2982;42.684;23.356;2023-02-28T10:09:32;57515.69;;;-143.17;100.00
5913;BME280;2982;42.684;23.356;2023-02-28T10:12:05;57515.69;;;-143.17;100.00
5913;BME280;2982;42.684;23.356;2023-02-28T10:14:33;57515.69;;;-143.17;100.00
5913;BME280;2982;42.684;23.356;2023-02-28T10:17:03;57515.69;;;-143.17;100.00
5913;BME280;2982;42.684;23.356;2023-02-28T10:22:38;57515.69;;;-143.17;100.00
5913;BME280;2982;42.684;23.356;2023-02-28T10:25:17;57515.69;;;-143.17;100.00
5913;BME280;2982;42.684;23.356;2023-02-28T10:27:43;57515.69;;;-143.17;100.00
5913;BME280;2982;42.684;23.356;2023-02-28T10:30:09;57515.69;;;-143.17;100.00
5913;BME280;2982;42.684;23.356;2023-02-28T10:32:38;57515.69;;;-143.17;100.00
5913;BME280;2982;42.684;23.356;2023-02-28T10:35:15;57515.69;;;-143.17;100.00
5913;BME280;2982;42.684;23.356;2023-02-28T10:37:43;57515.69;;;-143.17;100.00
5913;BME280;2982;42.684;23.356;2023-02-28T10:45:23;57515.69;;;-143.17;100.00
5913;BME280;2982;42.684;23.356;2023-02-28T10:48:02;57515.69;;;-143.17;100.00
5913;BME280;2982;42.684;23.356;2023-02-28T11:01:46;57515.69;;;-143.17;100.00
5913;BME280;2982;42.684;23.356;2023-02-28T11:07:00;57515.69;;;-143.17;100.00
5913;BME280;2982;42.684;23.356;2023-02-28T11:11:57;57515.69;;;-143.17;100.00
5913;BME280;2982;42.684;23.356;2023-02-28T11:14:27;57515.69;;;-143.17;100.00
5913;BME280;2982;42.684;23.356;2023-02-28T11:16:54;57515.69;;;-143.17;100.00
5913;BME280;2982;42.684;23.356;2023-02-28T11:19:28;57515.69;;;-143.17;100.00
5913;BME280;2982;42.684;23.356;2023-02-28T11:21:58;57515.69;;;-143.17;100.00
5913;BME280;2982;42.684;23.356;2023-02-28T11:24:36;57515.69;;;-143.17;100.00
5913;BME280;2982;42.684;23.356;2023-02-28T11:27:02;57515.69;;;-143.17;100.00
5913;BME280;2982;42.684;23.356;2023-02-28T11:29:32;57515.69;;;-143.17;100.00
5913;BME280;2982;42.684;23.356;2023-02-28T11:32:02;57515.69;;;-143.17;100.00
5913;BME280;2982;42.684;23.356;2023-02-28T11:34:28;57515.69;;;-143.17;100.00
5913;BME280;2982;42.684;23.356;2023-02-28T11:36:55;57515.69;;;-143.17;100.00
5913;BME280;2982;42.684;23.356;2023-02-28T11:39:21;57515.69;;;-143.17;100.00
5913;BME280;2982;42.684;23.356;2023-02-28T11:42:07;57515.69;;;-143.17;100.00
5913;BME280;2982;42.684;23.356;2023-02-28T11:47:15;57515.69;;;-143.17;100.00
5913;BME280;2982;42.684;23.356;2023-02-28T11:53:35;57515.69;;;-143.17;100.00
5913;BME280;2982;42.684;23.356;2023-02-28T12:04:29;57515.69;;;-143.17;100.00
5913;BME280;2982;42.684;23.356;2023-02-28T12:07:04;57515.69;;;-143.17;100.00
5913;BME280;2982;42.684;23.356;2023-02-28T12:10:19;57515.69;;;-143.17;100.00
5913;BME280;2982;42.684;23.356;2023-02-28T12:28:59;57515.69;;;-143.17;100.00
5913;BME280;2982;42.684;23.356;2023-02-28T12:31:30;57515.69;;;-143.17;100.00
5913;BME280;2982;42.684;23.356;2023-02-28T12:34:00;57515.69;;;-143.17;100.00
5913;BME280;2982;42.684;23.356;2023-02-28T12:37:55;95392.81;;;13.15;100.00
5913;BME280;2982;42.684;23.356;2023-02-28T12:40:25;95400.09;;;13.21;100.00
5913;BME280;2982;42.684;23.356;2023-02-28T12:42:58;95389.00;;;13.22;100.00
5913;BME280;2982;42.684;23.356;2023-02-28T12:45:40;95389.75;;;13.24;100.00
5913;BME280;2982;42.684;23.356;2023-02-28T12:48:12;95389.81;;;13.22;100.00
5913;BME280;2982;42.684;23.356;2023-02-28T12:50:39;95383.06;;;13.21;100.00
5913;BME280;2982;42.684;23.356;2023-02-28T12:58:39;95373.72;;;13.06;100.00
5913;BME280;2982;42.684;23.356;2023-02-28T13:09:57;95384.50;;;13.11;100.00
5913;BME280;2982;42.684;23.356;2023-02-28T13:12:24;95389.81;;;13.38;100.00
5913;BME280;2982;42.684;23.356;2023-02-28T13:14:50;95385.25;;;13.43;100.00
5913;BME280;2982;42.684;23.356;2023-02-28T13:17:24;95379.03;;;13.33;100.00
5913;BME280;2982;42.684;23.356;2023-02-28T13:22:41;95375.94;;;13.12;100.00
5913;BME280;2982;42.684;23.356;2023-02-28T13:27:59;95356.47;;;13.26;100.00
5913;BME280;2982;42.684;23.356;2023-02-28T13:33:30;95380.41;;;13.39;100.00
5913;BME280;2982;42.684;23.356;2023-02-28T13:38:53;95377.03;;;13.38;100.00
5913;BME280;2982;42.684;23.356;2023-02-28T13:44:13;95375.34;;;13.07;100.00
5913;BME280;2982;42.684;23.356;2023-02-28T13:51:49;95366.59;;;12.82;100.00
5913;BME280;2982;42.684;23.356;2023-02-28T14:05:06;95319.13;;;12.01;100.00
5913;BME280;2982;42.684;23.356;2023-02-28T14:07:49;95364.09;;;12.17;100.00
5913;BME280;2982;42.684;23.356;2023-02-28T14:10:26;95368.59;;;12.28;100.00
5913;BME280;2982;42.684;23.356;2023-02-28T14:15:54;95322.34;;;11.54;100.00
5913;BME280;2982;42.684;23.356;2023-02-28T14:18:33;95381.16;;;11.65;100.00
5913;BME280;2982;42.684;23.356;2023-02-28T14:21:25;95376.81;;;11.67;100.00
5913;BME280;2982;42.684;23.356;2023-02-28T14:32:35;95380.94;;;11.35;100.00
5913;BME280;2982;42.684;23.356;2023-02-28T14:37:39;95365.38;;;11.24;100.00
5913;BME280;2982;42.684;23.356;2023-02-28T14:40:20;95372.53;;;11.16;100.00
5913;BME280;2982;42.684;23.356;2023-02-28T14:42:54;95372.09;;;11.25;100.00
5913;BME280;2982;42.684;23.356;2023-02-28T14:45:21;95371.31;;;11.06;100.00
5913;BME280;2982;42.684;23.356;2023-02-28T14:47:51;95333.34;;;10.86;100.00
5913;BME280;2982;42.684;23.356;2023-02-28T14:50:21;95371.03;;;11.12;100.00
5913;BME280;2982;42.684;23.356;2023-02-28T14:52:52;95387.88;;;11.15;100.00
5913;BME280;2982;42.684;23.356;2023-02-28T14:55:19;95360.94;;;11.11;100.00
5913;BME280;2982;42.684;23.356;2023-02-28T14:57:58;95362.81;;;11.07;100.00
5913;BME280;2982;42.684;23.356;2023-02-28T15:00:36;95280.91;;;10.49;100.00
5913;BME280;2982;42.684;23.356;2023-02-28T15:03:22;95260.22;;;10.21;100.00
5913;BME280;2982;42.684;23.356;2023-02-28T15:05:56;95383.59;;;10.98;100.00
5913;BME280;2982;42.684;23.356;2023-02-28T15:08:23;95384.56;;;10.95;100.00
5913;BME280;2982;42.684;23.356;2023-02-28T15:10:55;95314.00;;;10.65;100.00
5913;BME280;2982;42.684;23.356;2023-02-28T15:13:21;95375.56;;;10.88;100.00
5913;BME280;2982;42.684;23.356;2023-02-28T15:15:54;95366.94;;;10.74;100.00
5913;BME280;2982;42.684;23.356;2023-02-28T15:18:59;95372.00;;;10.74;100.00
5913;BME280;2982;42.684;23.356;2023-02-28T15:21:28;95364.53;;;10.71;100.00
5913;BME280;2982;42.684;23.356;2023-02-28T15:23:58;95370.47;;;10.71;100.00
5913;BME280;2982;42.684;23.356;2023-02-28T15:26:27;95377.94;;;10.55;100.00
5913;BME280;2982;42.684;23.356;2023-02-28T15:29:00;95381.72;;;10.47;100.00
5913;BME280;2982;42.684;23.356;2023-02-28T15:31:33;95397.19;;;10.42;100.00
5913;BME280;2982;42.684;23.356;2023-02-28T15:34:03;95356.66;;;10.02;100.00